sensor_id;sensor_type;location;lat;lon;timestamp;P1;durP1;ratioP1;P2;durP2;ratioP2
75520;SDS011;64102;48.628;9.002;2023-05-27T00:02:02;5.60;;;0.73;;
75520;SDS011;64102;48.628;9.002;2023-05-27T00:04:27;8.10;;;0.73;;
75520;SDS011;64102;48.628;9.002;2023-05-27T00:06:53;8.10;;;0.50;;
75520;SDS011;64102;48.628;9.002;2023-05-27T00:09:18;9.30;;;0.90;;
75520;SDS011;64102;48.628;9.002;2023-05-27T00:11:43;6.37;;;0.67;;
75520;SDS011;64102;48.628;9.002;2023-05-27T00:14:09;7.80;;;0.70;;
75520;SDS011;64102;48.628;9.002;2023-05-27T00:16:34;7.00;;;0.70;;
75520;SDS011;64102;48.628;9.002;2023-05-27T00:19:01;7.35;;;0.60;;
75520;SDS011;64102;48.628;9.002;2023-05-27T00:21:27;6.43;;;0.52;;
75520;SDS011;64102;48.628;9.002;2023-05-27T00:23:53;10.20;;;0.90;;
75520;SDS011;64102;48.628;9.002;2023-05-27T00:26:18;7.72;;;0.60;;
75520;SDS011;64102;48.628;9.002;2023-05-27T00:28:43;8.85;;;1.00;;
75520;SDS011;64102;48.628;9.002;2023-05-27T00:31:09;6.43;;;0.52;;
75520;SDS011;64102;48.628;9.002;2023-05-27T00:33:34;7.07;;;0.40;;
75520;SDS011;64102;48.628;9.002;2023-05-27T00:35:59;7.03;;;0.75;;
75520;SDS011;64102;48.628;9.002;2023-05-27T00:38:25;6.70;;;0.52;;
75520;SDS011;64102;48.628;9.002;2023-05-27T00:40:51;6.23;;;0.70;;
75520;SDS011;64102;48.628;9.002;2023-05-27T00:43:18;7.80;;;0.52;;
75520;SDS011;64102;48.628;9.002;2023-05-27T00:45:43;6.97;;;0.90;;
75520;SDS011;64102;48.628;9.002;2023-05-27T00:48:09;7.63;;;0.73;;
75520;SDS011;64102;48.628;9.002;2023-05-27T00:50:35;6.15;;;0.45;;
75520;SDS011;64102;48.628;9.002;2023-05-27T00:53:00;8.60;;;0.82;;
75520;SDS011;64102;48.628;9.002;2023-05-27T00:55:26;6.10;;;0.70;;
75520;SDS011;64102;48.628;9.002;2023-05-27T00:57:51;7.32;;;0.73;;
75520;SDS011;64102;48.628;9.002;2023-05-27T01:00:20;7.13;;;0.85;;
75520;SDS011;64102;48.628;9.002;2023-05-27T01:02:46;8.20;;;0.77;;
75520;SDS011;64102;48.628;9.002;2023-05-27T01:05:13;6.80;;;0.60;;
75520;SDS011;64102;48.628;9.002;2023-05-27T01:15:36;7.65;;;0.60;;
75520;SDS011;64102;48.628;9.002;2023-05-27T01:18:05;6.80;;;0.50;;
75520;SDS011;64102;48.628;9.002;2023-05-27T01:20:31;6.18;;;0.50;;
75520;SDS011;64102;48.628;9.002;2023-05-27T01:22:57;6.18;;;0.50;;
75520;SDS011;64102;48.628;9.002;2023-05-27T01:25:24;7.50;;;0.70;;
75520;SDS011;64102;48.628;9.002;2023-05-27T01:27:50;9.75;;;0.70;;
75520;SDS011;64102;48.628;9.002;2023-05-27T01:30:17;7.80;;;0.77;;
75520;SDS011;64102;48.628;9.002;2023-05-27T01:32:45;5.40;;;0.40;;
75520;SDS011;64102;48.628;9.002;2023-05-27T01:37:52;6.13;;;0.57;;
75520;SDS011;64102;48.628;9.002;2023-05-27T01:40:21;7.43;;;0.60;;
75520;SDS011;64102;48.628;9.002;2023-05-27T01:42:46;6.40;;;0.63;;
75520;SDS011;64102;48.628;9.002;2023-05-27T01:45:13;6.63;;;0.50;;
75520;SDS011;64102;48.628;9.002;2023-05-27T01:47:39;7.18;;;0.55;;
75520;SDS011;64102;48.628;9.002;2023-05-27T01:50:05;6.82;;;0.40;;
75520;SDS011;64102;48.628;9.002;2023-05-27T01:52:31;4.18;;;0.40;;
75520;SDS011;64102;48.628;9.002;2023-05-27T01:54:57;7.88;;;0.40;;
75520;SDS011;64102;48.628;9.002;2023-05-27T01:57:23;7.57;;;0.60;;
75520;SDS011;64102;48.628;9.002;2023-05-27T01:59:50;7.97;;;0.90;;
75520;SDS011;64102;48.628;9.002;2023-05-27T02:02:15;5.77;;;0.40;;
75520;SDS011;64102;48.628;9.002;2023-05-27T02:04:40;8.07;;;0.80;;
75520;SDS011;64102;48.628;9.002;2023-05-27T02:07:06;6.20;;;0.63;;
75520;SDS011;64102;48.628;9.002;2023-05-27T02:09:31;8.38;;;0.60;;
75520;SDS011;64102;48.628;9.002;2023-05-27T02:11:57;9.98;;;0.77;;
75520;SDS011;64102;48.628;9.002;2023-05-27T02:14:22;5.07;;;0.60;;
75520;SDS011;64102;48.628;9.002;2023-05-27T02:16:47;7.23;;;0.73;;
75520;SDS011;64102;48.628;9.002;2023-05-27T02:19:14;7.05;;;0.75;;
75520;SDS011;64102;48.628;9.002;2023-05-27T02:21:40;10.60;;;1.10;;
75520;SDS011;64102;48.628;9.002;2023-05-27T02:24:05;7.93;;;0.40;;
75520;SDS011;64102;48.628;9.002;2023-05-27T02:26:31;5.45;;;0.50;;
75520;SDS011;64102;48.628;9.002;2023-05-27T02:28:56;7.30;;;0.47;;
75520;SDS011;64102;48.628;9.002;2023-05-27T02:31:22;6.87;;;0.60;;
75520;SDS011;64102;48.628;9.002;2023-05-27T02:33:47;9.07;;;0.50;;
75520;SDS011;64102;48.628;9.002;2023-05-27T02:36:12;9.17;;;0.83;;
75520;SDS011;64102;48.628;9.002;2023-05-27T02:38:38;5.28;;;0.47;;
75520;SDS011;64102;48.628;9.002;2023-05-27T02:41:03;8.18;;;0.52;;
75520;SDS011;64102;48.628;9.002;2023-05-27T02:43:29;6.38;;;0.63;;
75520;SDS011;64102;48.628;9.002;2023-05-27T02:45:54;9.90;;;0.70;;
75520;SDS011;64102;48.628;9.002;2023-05-27T02:48:20;7.10;;;0.63;;
75520;SDS011;64102;48.628;9.002;2023-05-27T02:50:45;7.23;;;0.50;;
75520;SDS011;64102;48.628;9.002;2023-05-27T02:53:11;6.80;;;0.63;;
75520;SDS011;64102;48.628;9.002;2023-05-27T02:55:36;6.60;;;0.60;;
75520;SDS011;64102;48.628;9.002;2023-05-27T02:58:02;7.00;;;0.50;;
75520;SDS011;64102;48.628;9.002;2023-05-27T03:00:29;7.55;;;0.60;;
75520;SDS011;64102;48.628;9.002;2023-05-27T03:02:55;7.05;;;0.50;;
75520;SDS011;64102;48.628;9.002;2023-05-27T03:05:21;7.88;;;0.47;;
75520;SDS011;64102;48.628;9.002;2023-05-27T03:07:46;11.40;;;0.90;;
75520;SDS011;64102;48.628;9.002;2023-05-27T03:10:11;10.30;;;1.15;;
75520;SDS011;64102;48.628;9.002;2023-05-27T03:12:37;4.97;;;0.45;;
75520;SDS011;64102;48.628;9.002;2023-05-27T03:15:03;6.80;;;0.60;;
75520;SDS011;64102;48.628;9.002;2023-05-27T03:17:28;8.07;;;0.77;;
75520;SDS011;64102;48.628;9.002;2023-05-27T03:19:54;7.10;;;0.60;;
75520;SDS011;64102;48.628;9.002;2023-05-27T03:22:19;7.43;;;0.70;;
75520;SDS011;64102;48.628;9.002;2023-05-27T03:24:45;10.27;;;0.65;;
75520;SDS011;64102;48.628;9.002;2023-05-27T03:27:11;7.78;;;0.57;;
75520;SDS011;64102;48.628;9.002;2023-05-27T03:29:36;11.32;;;0.82;;
75520;SDS011;64102;48.628;9.002;2023-05-27T03:32:01;5.53;;;0.40;;
75520;SDS011;64102;48.628;9.002;2023-05-27T03:34:27;7.70;;;0.65;;
75520;SDS011;64102;48.628;9.002;2023-05-27T03:36:52;6.57;;;0.50;;
75520;SDS011;64102;48.628;9.002;2023-05-27T03:39:18;6.80;;;1.07;;
75520;SDS011;64102;48.628;9.002;2023-05-27T03:41:43;6.50;;;0.50;;
75520;SDS011;64102;48.628;9.002;2023-05-27T03:44:09;5.65;;;0.50;;
75520;SDS011;64102;48.628;9.002;2023-05-27T03:46:34;7.68;;;0.80;;
75520;SDS011;64102;48.628;9.002;2023-05-27T03:49:00;6.47;;;0.40;;
75520;SDS011;64102;48.628;9.002;2023-05-27T03:51:26;8.23;;;0.65;;
75520;SDS011;64102;48.628;9.002;2023-05-27T03:53:51;7.50;;;0.82;;
75520;SDS011;64102;48.628;9.002;2023-05-27T03:56:17;6.95;;;0.77;;
75520;SDS011;64102;48.628;9.002;2023-05-27T03:58:42;6.85;;;0.50;;
75520;SDS011;64102;48.628;9.002;2023-05-27T04:01:08;6.60;;;0.68;;
75520;SDS011;64102;48.628;9.002;2023-05-27T04:03:33;7.95;;;0.85;;
75520;SDS011;64102;48.628;9.002;2023-05-27T04:05:59;7.78;;;1.00;;
75520;SDS011;64102;48.628;9.002;2023-05-27T04:08:25;5.80;;;0.60;;
75520;SDS011;64102;48.628;9.002;2023-05-27T04:10:53;5.70;;;0.70;;
75520;SDS011;64102;48.628;9.002;2023-05-27T04:13:19;6.82;;;0.50;;
75520;SDS011;64102;48.628;9.002;2023-05-27T04:15:44;8.00;;;0.52;;
75520;SDS011;64102;48.628;9.002;2023-05-27T04:18:11;8.63;;;0.60;;
75520;SDS011;64102;48.628;9.002;2023-05-27T04:20:37;7.85;;;0.68;;
75520;SDS011;64102;48.628;9.002;2023-05-27T04:23:05;8.43;;;0.70;;
75520;SDS011;64102;48.628;9.002;2023-05-27T04:25:33;7.18;;;0.75;;
75520;SDS011;64102;48.628;9.002;2023-05-27T04:28:02;8.77;;;0.90;;
75520;SDS011;64102;48.628;9.002;2023-05-27T04:30:31;9.07;;;0.73;;
75520;SDS011;64102;48.628;9.002;2023-05-27T04:32:58;6.28;;;0.82;;
75520;SDS011;64102;48.628;9.002;2023-05-27T04:35:24;8.07;;;0.70;;
75520;SDS011;64102;48.628;9.002;2023-05-27T04:37:50;7.45;;;0.60;;
75520;SDS011;64102;48.628;9.002;2023-05-27T04:40:16;10.55;;;1.00;;
75520;SDS011;64102;48.628;9.002;2023-05-27T04:42:41;8.50;;;0.55;;
75520;SDS011;64102;48.628;9.002;2023-05-27T04:45:08;8.13;;;0.90;;
75520;SDS011;64102;48.628;9.002;2023-05-27T04:47:38;6.25;;;0.80;;
75520;SDS011;64102;48.628;9.002;2023-05-27T04:50:06;8.32;;;0.82;;
75520;SDS011;64102;48.628;9.002;2023-05-27T04:52:33;10.20;;;1.10;;
75520;SDS011;64102;48.628;9.002;2023-05-27T04:55:04;6.57;;;0.52;;
75520;SDS011;64102;48.628;9.002;2023-05-27T04:57:30;6.90;;;0.60;;
75520;SDS011;64102;48.628;9.002;2023-05-27T04:59:56;7.80;;;0.80;;
75520;SDS011;64102;48.628;9.002;2023-05-27T05:02:43;11.80;;;0.70;;
75520;SDS011;64102;48.628;9.002;2023-05-27T05:05:12;6.72;;;0.90;;
75520;SDS011;64102;48.628;9.002;2023-05-27T05:07:38;9.20;;;0.77;;
75520;SDS011;64102;48.628;9.002;2023-05-27T05:10:06;7.10;;;0.60;;
75520;SDS011;64102;48.628;9.002;2023-05-27T05:12:32;7.93;;;0.63;;
75520;SDS011;64102;48.628;9.002;2023-05-27T05:14:58;7.07;;;0.68;;
75520;SDS011;64102;48.628;9.002;2023-05-27T05:17:23;8.90;;;0.70;;
75520;SDS011;64102;48.628;9.002;2023-05-27T05:19:49;7.57;;;0.60;;
75520;SDS011;64102;48.628;9.002;2023-05-27T05:22:16;6.78;;;0.40;;
75520;SDS011;64102;48.628;9.002;2023-05-27T05:24:46;10.82;;;0.80;;
75520;SDS011;64102;48.628;9.002;2023-05-27T05:27:12;6.30;;;0.60;;
75520;SDS011;64102;48.628;9.002;2023-05-27T05:29:37;6.10;;;0.70;;
75520;SDS011;64102;48.628;9.002;2023-05-27T05:32:03;8.50;;;0.90;;
75520;SDS011;64102;48.628;9.002;2023-05-27T05:34:29;5.85;;;0.65;;
75520;SDS011;64102;48.628;9.002;2023-05-27T05:36:54;8.95;;;1.00;;
75520;SDS011;64102;48.628;9.002;2023-05-27T05:39:20;6.97;;;0.60;;
75520;SDS011;64102;48.628;9.002;2023-05-27T05:41:45;7.87;;;0.70;;
75520;SDS011;64102;48.628;9.002;2023-05-27T05:44:11;6.65;;;0.55;;
75520;SDS011;64102;48.628;9.002;2023-05-27T05:46:37;6.65;;;0.40;;
75520;SDS011;64102;48.628;9.002;2023-05-27T05:49:03;10.88;;;0.80;;
75520;SDS011;64102;48.628;9.002;2023-05-27T05:51:29;8.98;;;0.65;;
75520;SDS011;64102;48.628;9.002;2023-05-27T05:53:55;6.40;;;0.70;;
75520;SDS011;64102;48.628;9.002;2023-05-27T05:56:21;6.10;;;0.98;;
75520;SDS011;64102;48.628;9.002;2023-05-27T05:58:46;13.93;;;0.85;;
75520;SDS011;64102;48.628;9.002;2023-05-27T06:01:12;10.80;;;0.70;;
75520;SDS011;64102;48.628;9.002;2023-05-27T06:03:37;8.57;;;0.73;;
75520;SDS011;64102;48.628;9.002;2023-05-27T06:06:03;8.37;;;0.67;;
75520;SDS011;64102;48.628;9.002;2023-05-27T06:08:28;11.52;;;1.02;;
75520;SDS011;64102;48.628;9.002;2023-05-27T06:10:53;5.93;;;0.93;;
75520;SDS011;64102;48.628;9.002;2023-05-27T06:13:19;8.63;;;0.70;;
75520;SDS011;64102;48.628;9.002;2023-05-27T06:15:44;9.38;;;0.57;;
75520;SDS011;64102;48.628;9.002;2023-05-27T06:18:10;11.25;;;1.10;;
75520;SDS011;64102;48.628;9.002;2023-05-27T06:20:35;9.25;;;0.60;;
75520;SDS011;64102;48.628;9.002;2023-05-27T06:23:01;8.48;;;0.77;;
75520;SDS011;64102;48.628;9.002;2023-05-27T06:25:26;5.50;;;0.70;;
75520;SDS011;64102;48.628;9.002;2023-05-27T06:27:51;8.48;;;0.63;;
75520;SDS011;64102;48.628;9.002;2023-05-27T06:30:17;7.28;;;0.80;;
75520;SDS011;64102;48.628;9.002;2023-05-27T06:32:42;9.02;;;0.85;;
75520;SDS011;64102;48.628;9.002;2023-05-27T06:35:07;10.47;;;0.87;;
75520;SDS011;64102;48.628;9.002;2023-05-27T06:37:33;8.52;;;0.70;;
75520;SDS011;64102;48.628;9.002;2023-05-27T06:39:58;7.73;;;0.87;;
75520;SDS011;64102;48.628;9.002;2023-05-27T06:42:24;7.27;;;0.53;;
75520;SDS011;64102;48.628;9.002;2023-05-27T06:44:49;5.65;;;0.80;;
75520;SDS011;64102;48.628;9.002;2023-05-27T06:47:14;9.57;;;1.17;;
75520;SDS011;64102;48.628;9.002;2023-05-27T06:49:40;9.50;;;1.02;;
75520;SDS011;64102;48.628;9.002;2023-05-27T06:52:05;7.97;;;1.08;;
75520;SDS011;64102;48.628;9.002;2023-05-27T06:54:31;6.78;;;0.60;;
75520;SDS011;64102;48.628;9.002;2023-05-27T06:56:57;8.70;;;1.13;;
75520;SDS011;64102;48.628;9.002;2023-05-27T06:59:22;7.20;;;0.70;;
75520;SDS011;64102;48.628;9.002;2023-05-27T07:01:48;7.88;;;0.90;;
75520;SDS011;64102;48.628;9.002;2023-05-27T07:04:13;8.00;;;1.00;;
75520;SDS011;64102;48.628;9.002;2023-05-27T07:06:39;8.85;;;1.30;;
75520;SDS011;64102;48.628;9.002;2023-05-27T07:09:04;8.60;;;1.33;;
75520;SDS011;64102;48.628;9.002;2023-05-27T07:11:31;7.07;;;0.97;;
75520;SDS011;64102;48.628;9.002;2023-05-27T07:13:57;8.75;;;1.20;;
75520;SDS011;64102;48.628;9.002;2023-05-27T07:16:22;7.82;;;0.98;;
75520;SDS011;64102;48.628;9.002;2023-05-27T07:18:48;9.13;;;1.08;;
75520;SDS011;64102;48.628;9.002;2023-05-27T07:21:13;9.48;;;1.42;;
75520;SDS011;64102;48.628;9.002;2023-05-27T07:23:38;7.07;;;0.75;;
75520;SDS011;64102;48.628;9.002;2023-05-27T07:26:04;9.63;;;1.40;;
75520;SDS011;64102;48.628;9.002;2023-05-27T07:28:29;8.87;;;2.17;;
75520;SDS011;64102;48.628;9.002;2023-05-27T07:30:55;10.48;;;1.73;;
75520;SDS011;64102;48.628;9.002;2023-05-27T07:33:20;8.77;;;1.30;;
75520;SDS011;64102;48.628;9.002;2023-05-27T07:35:45;8.52;;;1.90;;
75520;SDS011;64102;48.628;9.002;2023-05-27T07:38:11;8.00;;;1.50;;
75520;SDS011;64102;48.628;9.002;2023-05-27T07:40:36;8.37;;;1.93;;
75520;SDS011;64102;48.628;9.002;2023-05-27T07:43:01;9.90;;;1.73;;
75520;SDS011;64102;48.628;9.002;2023-05-27T07:45:27;7.20;;;1.35;;
75520;SDS011;64102;48.628;9.002;2023-05-27T07:47:53;8.35;;;1.40;;
75520;SDS011;64102;48.628;9.002;2023-05-27T07:50:19;7.70;;;1.50;;
75520;SDS011;64102;48.628;9.002;2023-05-27T07:52:44;8.90;;;1.63;;
75520;SDS011;64102;48.628;9.002;2023-05-27T07:55:10;7.85;;;2.05;;
75520;SDS011;64102;48.628;9.002;2023-05-27T07:57:35;7.10;;;1.55;;
75520;SDS011;64102;48.628;9.002;2023-05-27T08:00:01;9.02;;;2.15;;
75520;SDS011;64102;48.628;9.002;2023-05-27T08:02:28;8.27;;;1.90;;
75520;SDS011;64102;48.628;9.002;2023-05-27T08:04:53;7.07;;;2.17;;
75520;SDS011;64102;48.628;9.002;2023-05-27T08:07:19;8.17;;;1.60;;
75520;SDS011;64102;48.628;9.002;2023-05-27T08:09:44;9.07;;;1.92;;
75520;SDS011;64102;48.628;9.002;2023-05-27T08:12:10;9.82;;;2.38;;
75520;SDS011;64102;48.628;9.002;2023-05-27T08:14:35;8.77;;;1.67;;
75520;SDS011;64102;48.628;9.002;2023-05-27T08:17:00;6.90;;;1.63;;
75520;SDS011;64102;48.628;9.002;2023-05-27T08:19:26;9.98;;;2.75;;
75520;SDS011;64102;48.628;9.002;2023-05-27T08:21:52;9.80;;;2.08;;
75520;SDS011;64102;48.628;9.002;2023-05-27T08:24:19;8.85;;;2.55;;
75520;SDS011;64102;48.628;9.002;2023-05-27T08:26:46;8.07;;;1.75;;
75520;SDS011;64102;48.628;9.002;2023-05-27T08:29:12;9.30;;;2.13;;
75520;SDS011;64102;48.628;9.002;2023-05-27T08:31:37;9.55;;;1.10;;
75520;SDS011;64102;48.628;9.002;2023-05-27T08:34:03;9.07;;;1.63;;
75520;SDS011;64102;48.628;9.002;2023-05-27T08:36:28;7.82;;;2.45;;
75520;SDS011;64102;48.628;9.002;2023-05-27T08:38:54;8.40;;;2.33;;
75520;SDS011;64102;48.628;9.002;2023-05-27T08:41:20;10.60;;;2.00;;
75520;SDS011;64102;48.628;9.002;2023-05-27T08:43:46;8.98;;;2.10;;
75520;SDS011;64102;48.628;9.002;2023-05-27T08:46:12;8.65;;;1.55;;
75520;SDS011;64102;48.628;9.002;2023-05-27T08:48:39;9.52;;;2.00;;
75520;SDS011;64102;48.628;9.002;2023-05-27T08:51:05;8.05;;;1.95;;
75520;SDS011;64102;48.628;9.002;2023-05-27T08:53:31;10.00;;;2.22;;
75520;SDS011;64102;48.628;9.002;2023-05-27T08:55:57;11.32;;;2.00;;
75520;SDS011;64102;48.628;9.002;2023-05-27T08:58:25;8.88;;;2.20;;
75520;SDS011;64102;48.628;9.002;2023-05-27T09:00:51;8.50;;;2.38;;
75520;SDS011;64102;48.628;9.002;2023-05-27T09:03:17;10.38;;;2.78;;
75520;SDS011;64102;48.628;9.002;2023-05-27T09:05:42;8.73;;;3.10;;
75520;SDS011;64102;48.628;9.002;2023-05-27T09:08:08;8.90;;;2.50;;
75520;SDS011;64102;48.628;9.002;2023-05-27T09:10:34;10.80;;;3.42;;
75520;SDS011;64102;48.628;9.002;2023-05-27T09:13:01;8.75;;;3.13;;
75520;SDS011;64102;48.628;9.002;2023-05-27T09:15:26;8.70;;;1.93;;
75520;SDS011;64102;48.628;9.002;2023-05-27T09:17:52;10.20;;;2.47;;
75520;SDS011;64102;48.628;9.002;2023-05-27T09:20:23;8.73;;;2.93;;
75520;SDS011;64102;48.628;9.002;2023-05-27T09:22:55;11.60;;;3.28;;
75520;SDS011;64102;48.628;9.002;2023-05-27T09:25:23;8.48;;;2.95;;
75520;SDS011;64102;48.628;9.002;2023-05-27T09:27:50;9.25;;;3.63;;
75520;SDS011;64102;48.628;9.002;2023-05-27T09:30:18;8.80;;;3.97;;
75520;SDS011;64102;48.628;9.002;2023-05-27T09:32:44;10.50;;;3.50;;
75520;SDS011;64102;48.628;9.002;2023-05-27T09:35:11;10.00;;;3.47;;
75520;SDS011;64102;48.628;9.002;2023-05-27T09:37:37;8.15;;;2.92;;
75520;SDS011;64102;48.628;9.002;2023-05-27T09:42:46;9.50;;;4.03;;
75520;SDS011;64102;48.628;9.002;2023-05-27T09:45:13;8.48;;;3.45;;
75520;SDS011;64102;48.628;9.002;2023-05-27T09:47:41;9.65;;;2.85;;
75520;SDS011;64102;48.628;9.002;2023-05-27T09:50:12;8.35;;;3.80;;
75520;SDS011;64102;48.628;9.002;2023-05-27T09:52:39;9.30;;;4.88;;
75520;SDS011;64102;48.628;9.002;2023-05-27T09:55:06;8.35;;;3.13;;
75520;SDS011;64102;48.628;9.002;2023-05-27T09:57:37;8.52;;;3.28;;
75520;SDS011;64102;48.628;9.002;2023-05-27T10:00:04;10.70;;;3.75;;
75520;SDS011;64102;48.628;9.002;2023-05-27T10:02:44;8.68;;;3.38;;
75520;SDS011;64102;48.628;9.002;2023-05-27T10:05:12;10.50;;;3.80;;
75520;SDS011;64102;48.628;9.002;2023-05-27T10:07:40;8.18;;;4.28;;
75520;SDS011;64102;48.628;9.002;2023-05-27T10:10:07;9.98;;;3.88;;
75520;SDS011;64102;48.628;9.002;2023-05-27T10:12:35;9.15;;;3.92;;
75520;SDS011;64102;48.628;9.002;2023-05-27T10:15:02;8.35;;;3.55;;
75520;SDS011;64102;48.628;9.002;2023-05-27T10:17:39;9.45;;;4.63;;
75520;SDS011;64102;48.628;9.002;2023-05-27T10:23:10;9.88;;;4.07;;
75520;SDS011;64102;48.628;9.002;2023-05-27T10:25:45;8.43;;;3.45;;
75520;SDS011;64102;48.628;9.002;2023-05-27T10:31:14;9.23;;;3.75;;
75520;SDS011;64102;48.628;9.002;2023-05-27T10:33:44;11.00;;;5.10;;
75520;SDS011;64102;48.628;9.002;2023-05-27T10:36:12;8.48;;;3.80;;
75520;SDS011;64102;48.628;9.002;2023-05-27T10:38:41;8.95;;;3.38;;
75520;SDS011;64102;48.628;9.002;2023-05-27T10:41:07;10.45;;;3.55;;
75520;SDS011;64102;48.628;9.002;2023-05-27T10:43:33;8.85;;;4.47;;
75520;SDS011;64102;48.628;9.002;2023-05-27T10:46:12;7.90;;;3.55;;
75520;SDS011;64102;48.628;9.002;2023-05-27T10:48:38;8.13;;;3.60;;
75520;SDS011;64102;48.628;9.002;2023-05-27T10:51:06;7.50;;;2.60;;
75520;SDS011;64102;48.628;9.002;2023-05-27T10:53:34;10.10;;;3.50;;
75520;SDS011;64102;48.628;9.002;2023-05-27T10:56:00;9.15;;;3.95;;
75520;SDS011;64102;48.628;9.002;2023-05-27T10:58:26;9.23;;;4.43;;
75520;SDS011;64102;48.628;9.002;2023-05-27T11:00:52;9.68;;;3.60;;
75520;SDS011;64102;48.628;9.002;2023-05-27T11:03:23;8.27;;;2.63;;
75520;SDS011;64102;48.628;9.002;2023-05-27T11:08:29;10.55;;;2.58;;
75520;SDS011;64102;48.628;9.002;2023-05-27T11:11:02;8.05;;;2.90;;
75520;SDS011;64102;48.628;9.002;2023-05-27T11:13:33;8.23;;;2.67;;
75520;SDS011;64102;48.628;9.002;2023-05-27T11:16:04;8.70;;;2.80;;
75520;SDS011;64102;48.628;9.002;2023-05-27T11:21:03;9.73;;;3.90;;
75520;SDS011;64102;48.628;9.002;2023-05-27T11:23:33;8.45;;;3.25;;
75520;SDS011;64102;48.628;9.002;2023-05-27T11:26:17;8.43;;;2.65;;
75520;SDS011;64102;48.628;9.002;2023-05-27T11:28:45;7.60;;;2.60;;
75520;SDS011;64102;48.628;9.002;2023-05-27T11:31:30;9.82;;;2.95;;
75520;SDS011;64102;48.628;9.002;2023-05-27T11:33:56;9.32;;;3.10;;
75520;SDS011;64102;48.628;9.002;2023-05-27T11:36:22;9.02;;;2.65;;
75520;SDS011;64102;48.628;9.002;2023-05-27T11:38:55;7.30;;;2.58;;
75520;SDS011;64102;48.628;9.002;2023-05-27T11:41:25;10.00;;;4.32;;
75520;SDS011;64102;48.628;9.002;2023-05-27T11:43:54;8.10;;;3.63;;
75520;SDS011;64102;48.628;9.002;2023-05-27T11:46:22;7.68;;;3.03;;
75520;SDS011;64102;48.628;9.002;2023-05-27T11:48:48;8.10;;;3.50;;
75520;SDS011;64102;48.628;9.002;2023-05-27T11:51:16;8.00;;;3.95;;
75520;SDS011;64102;48.628;9.002;2023-05-27T11:53:45;8.35;;;3.80;;
75520;SDS011;64102;48.628;9.002;2023-05-27T11:56:11;10.15;;;3.45;;
75520;SDS011;64102;48.628;9.002;2023-05-27T11:58:37;8.15;;;2.80;;
75520;SDS011;64102;48.628;9.002;2023-05-27T12:01:03;9.40;;;2.97;;
75520;SDS011;64102;48.628;9.002;2023-05-27T12:03:29;10.60;;;3.45;;
75520;SDS011;64102;48.628;9.002;2023-05-27T12:05:55;8.20;;;3.17;;
75520;SDS011;64102;48.628;9.002;2023-05-27T12:08:20;8.60;;;2.33;;
75520;SDS011;64102;48.628;9.002;2023-05-27T12:10:45;9.00;;;3.17;;
75520;SDS011;64102;48.628;9.002;2023-05-27T12:13:15;8.80;;;3.45;;
75520;SDS011;64102;48.628;9.002;2023-05-27T12:15:41;8.45;;;3.53;;
75520;SDS011;64102;48.628;9.002;2023-05-27T12:18:06;9.10;;;4.05;;
75520;SDS011;64102;48.628;9.002;2023-05-27T12:20:32;9.50;;;2.58;;
75520;SDS011;64102;48.628;9.002;2023-05-27T12:22:58;9.32;;;2.90;;
75520;SDS011;64102;48.628;9.002;2023-05-27T12:25:23;10.70;;;3.15;;
75520;SDS011;64102;48.628;9.002;2023-05-27T12:27:49;9.60;;;3.50;;
75520;SDS011;64102;48.628;9.002;2023-05-27T12:30:14;8.65;;;2.45;;
75520;SDS011;64102;48.628;9.002;2023-05-27T12:32:39;9.77;;;2.72;;
75520;SDS011;64102;48.628;9.002;2023-05-27T12:35:07;8.30;;;3.28;;
75520;SDS011;64102;48.628;9.002;2023-05-27T12:37:32;10.85;;;3.15;;
75520;SDS011;64102;48.628;9.002;2023-05-27T12:39:58;8.13;;;2.70;;
75520;SDS011;64102;48.628;9.002;2023-05-27T12:42:23;8.93;;;2.77;;
75520;SDS011;64102;48.628;9.002;2023-05-27T12:44:48;8.63;;;3.10;;
75520;SDS011;64102;48.628;9.002;2023-05-27T12:47:13;9.40;;;3.77;;
75520;SDS011;64102;48.628;9.002;2023-05-27T12:49:39;9.75;;;4.15;;
75520;SDS011;64102;48.628;9.002;2023-05-27T12:52:05;10.20;;;3.92;;
75520;SDS011;64102;48.628;9.002;2023-05-27T12:54:30;7.55;;;3.35;;
75520;SDS011;64102;48.628;9.002;2023-05-27T12:56:56;8.50;;;3.92;;
75520;SDS011;64102;48.628;9.002;2023-05-27T12:59:22;8.98;;;3.25;;
75520;SDS011;64102;48.628;9.002;2023-05-27T13:01:47;8.70;;;2.90;;
75520;SDS011;64102;48.628;9.002;2023-05-27T13:04:12;9.17;;;3.07;;
75520;SDS011;64102;48.628;9.002;2023-05-27T13:06:38;8.57;;;2.33;;
75520;SDS011;64102;48.628;9.002;2023-05-27T13:09:04;8.90;;;2.80;;
75520;SDS011;64102;48.628;9.002;2023-05-27T13:11:30;11.35;;;3.40;;
75520;SDS011;64102;48.628;9.002;2023-05-27T13:13:55;8.83;;;2.70;;
75520;SDS011;64102;48.628;9.002;2023-05-27T13:16:20;9.82;;;3.47;;
75520;SDS011;64102;48.628;9.002;2023-05-27T13:18:46;8.95;;;2.78;;
75520;SDS011;64102;48.628;9.002;2023-05-27T13:21:11;9.60;;;3.00;;
75520;SDS011;64102;48.628;9.002;2023-05-27T13:23:37;9.77;;;3.00;;
75520;SDS011;64102;48.628;9.002;2023-05-27T13:26:02;8.47;;;1.80;;
75520;SDS011;64102;48.628;9.002;2023-05-27T13:28:27;11.45;;;3.05;;
75520;SDS011;64102;48.628;9.002;2023-05-27T13:30:53;9.40;;;2.80;;
75520;SDS011;64102;48.628;9.002;2023-05-27T13:33:18;8.50;;;3.58;;
75520;SDS011;64102;48.628;9.002;2023-05-27T13:35:44;8.40;;;3.10;;
75520;SDS011;64102;48.628;9.002;2023-05-27T13:38:09;9.18;;;3.75;;
75520;SDS011;64102;48.628;9.002;2023-05-27T13:40:38;8.48;;;4.32;;
75520;SDS011;64102;48.628;9.002;2023-05-27T13:43:04;9.70;;;3.38;;
75520;SDS011;64102;48.628;9.002;2023-05-27T13:45:29;9.20;;;3.00;;
75520;SDS011;64102;48.628;9.002;2023-05-27T13:47:55;7.70;;;1.98;;
75520;SDS011;64102;48.628;9.002;2023-05-27T13:50:20;9.15;;;2.67;;
75520;SDS011;64102;48.628;9.002;2023-05-27T13:52:46;9.23;;;2.17;;
75520;SDS011;64102;48.628;9.002;2023-05-27T13:55:11;9.32;;;2.10;;
75520;SDS011;64102;48.628;9.002;2023-05-27T13:57:37;7.85;;;2.20;;
75520;SDS011;64102;48.628;9.002;2023-05-27T14:00:03;9.30;;;2.47;;
75520;SDS011;64102;48.628;9.002;2023-05-27T14:02:28;7.85;;;2.38;;
75520;SDS011;64102;48.628;9.002;2023-05-27T14:04:54;9.57;;;2.53;;
75520;SDS011;64102;48.628;9.002;2023-05-27T14:07:20;8.88;;;2.60;;
75520;SDS011;64102;48.628;9.002;2023-05-27T14:09:45;8.68;;;2.63;;
75520;SDS011;64102;48.628;9.002;2023-05-27T14:12:11;8.35;;;2.50;;
75520;SDS011;64102;48.628;9.002;2023-05-27T14:14:36;9.87;;;2.47;;
75520;SDS011;64102;48.628;9.002;2023-05-27T14:17:01;9.83;;;2.10;;
75520;SDS011;64102;48.628;9.002;2023-05-27T14:19:27;10.37;;;3.47;;
75520;SDS011;64102;48.628;9.002;2023-05-27T14:21:52;8.30;;;2.40;;
75520;SDS011;64102;48.628;9.002;2023-05-27T14:24:18;9.50;;;2.78;;
75520;SDS011;64102;48.628;9.002;2023-05-27T14:26:44;8.60;;;1.92;;
75520;SDS011;64102;48.628;9.002;2023-05-27T14:29:09;10.25;;;2.08;;
75520;SDS011;64102;48.628;9.002;2023-05-27T14:31:35;10.02;;;2.10;;
75520;SDS011;64102;48.628;9.002;2023-05-27T14:34:01;10.00;;;2.70;;
75520;SDS011;64102;48.628;9.002;2023-05-27T14:36:26;8.02;;;2.03;;
75520;SDS011;64102;48.628;9.002;2023-05-27T14:38:52;10.70;;;2.05;;
75520;SDS011;64102;48.628;9.002;2023-05-27T14:41:17;8.83;;;2.20;;
75520;SDS011;64102;48.628;9.002;2023-05-27T14:43:42;8.95;;;2.42;;
75520;SDS011;64102;48.628;9.002;2023-05-27T14:46:08;8.55;;;2.33;;
75520;SDS011;64102;48.628;9.002;2023-05-27T14:48:33;8.82;;;2.00;;
75520;SDS011;64102;48.628;9.002;2023-05-27T14:50:58;9.60;;;2.03;;
75520;SDS011;64102;48.628;9.002;2023-05-27T14:53:24;8.23;;;1.55;;
75520;SDS011;64102;48.628;9.002;2023-05-27T14:55:49;7.73;;;1.30;;
75520;SDS011;64102;48.628;9.002;2023-05-27T14:58:16;7.93;;;1.98;;
75520;SDS011;64102;48.628;9.002;2023-05-27T15:00:42;8.83;;;1.77;;
75520;SDS011;64102;48.628;9.002;2023-05-27T15:03:07;6.77;;;1.47;;
75520;SDS011;64102;48.628;9.002;2023-05-27T15:05:33;8.93;;;2.33;;